Terminal Aerodrome Forecast
Issued by NWS

Home | Current Version | Previous Version | Text Only | Print | Product List | Glossary On
Versions: 1 2 3 4 5 6 7 8 9 10 11 12 13 14 15 16 17 18 19
071
FTUS46 KMFR 222339
TAFLMT
TAF
KLMT 222339Z 2300/2324 26011KT P6SM BKN035 OVC050
     FM230400 22003KT P6SM SCT025 BKN050 BKN060
     FM230600 19003KT P6SM OVC025
     FM230900 00000KT 3SM BR SCT008 OVC015
     FM231800 01005KT P6SM FEW020=

USA.gov is the U.S. government's official web portal to all federal, state and local government web resources and services.